Etusivu
METAR-TAF:

METAR-TAF

Lentoasemat :

Ventspils, Latvia

Leveyspiiri: 57-21-28N, Pituuspiiri: 021-32-39E, korkeus merenpinnasta: 6 m

Tämänhetkinen sää

Tämä raportti tehtiin 21 minuuttia sitten, kello 17.20 UTC
Tuuli 6 kn pohjoisesta
Lämpötila 19°C
Kosteus 88%
Ilmanpaine 1011 hPa
Näkyvyys 10 km tai enemmän
Hajonneita pilviä 1700 ft:n korkeudessa

METAR: EVVA 211720Z AUTO 35006KT 9999 BKN017 19/17 Q1011

Aika: 20:41 (17:41 UTC)

Sääennuste

Tämä raportti tehtiin 31 minuuttia sitten, kello 17.10 UTC
Ennuste voimassa 21. päivästä klo 18 UTC - 22. päivään klo 03 UTC
Tuuli 5 kn pohjoisen/luoteesta
Näkyvyys 10 km tai enemmän
Hajanaisia pilviä 2000 ft:n korkeudessa
Ajoittain
21. päivästä klo 18 UTC - 21. päivään klo 21 UTC
Hajonneita pilviä 700 ft:n korkeudessa
Ajoittain
21. päivästä klo 21 UTC - 22. päivään klo 03 UTC
Näkyvyys: 0500 m
100 ft:n korkeudessa
sumua,

TAF: EVVA 211710Z 2118/2203 34005KT 9999 SCT020 TEMPO 2118/2121 BKN007 TEMPO 2121/2203 0500 FG VV001

Säähavainnot ja -ennusteet yli 4000 lentoasemalta (METAR- ja TAF-raportit).

Käytössä olevat sääasemat on merkitty karttaan keltaisilla ja punaisilla pisteillä.

Aseta hiiri pisteen päälle nähdäksesi sääaseman nimen.

Klikkaa sitten nähdäksesi säähavainnot ja -ennusteet.

Kartan vaihtaminen: klikkaa mustalla rastilla varustettuja vihreitä pisteitä, niin voit zoomata sisään; viivalla varustettua vihreää pistettä, niin voit zoomata ulos tai vihreitä nuolia, niin pääset viereisille kartoille.


METAR-TAF: